createdAt,value
2017-11-26T00:00:00.891Z,86.99
2017-11-26T00:02:28.628Z,86.75
2017-11-26T00:04:55.216Z,85.96
2017-11-26T00:07:21.043Z,86.76
2017-11-26T00:09:47.253Z,86.30
2017-11-26T00:12:14.061Z,86.57
2017-11-26T00:14:41.592Z,86.62
2017-11-26T00:17:09.612Z,86.63
2017-11-26T00:19:35.417Z,86.72
2017-11-26T00:22:03.493Z,86.95
2017-11-26T00:24:31.520Z,86.33
2017-11-26T00:26:59.256Z,86.74
2017-11-26T00:29:25.695Z,86.58
2017-11-26T00:31:52.334Z,86.88
2017-11-26T00:34:18.654Z,87.03
2017-11-26T00:36:48.429Z,86.80
2017-11-26T00:39:14.907Z,86.99
2017-11-26T00:41:47.805Z,86.75
2017-11-26T00:44:13.613Z,86.94
2017-11-26T00:46:39.455Z,86.85
2017-11-26T00:49:06.009Z,87.07
2017-11-26T00:51:32.466Z,87.22
2017-11-26T00:54:01.347Z,87.53
2017-11-26T00:56:27.773Z,87.30
2017-11-26T00:58:54.865Z,87.76
2017-11-26T01:01:21.600Z,87.38
2017-11-26T01:03:52.134Z,87.44
2017-11-26T01:08:52.304Z,87.89
2017-11-26T01:11:21.342Z,88.32
2017-11-26T01:13:48.812Z,88.08
2017-11-26T01:16:23.004Z,88.19
2017-11-26T01:18:49.308Z,88.31
2017-11-26T01:21:17.505Z,88.27
2017-11-26T01:23:43.318Z,88.69
2017-11-26T01:26:10.861Z,88.72
2017-11-26T01:28:41.395Z,88.43
2017-11-26T01:31:07.849Z,88.59
2017-11-26T01:33:34.538Z,88.47
2017-11-26T01:36:03.569Z,88.68
2017-11-26T01:38:29.373Z,88.99
2017-11-26T01:40:56.290Z,88.36
2017-11-26T01:43:28.068Z,88.53
2017-11-26T01:45:54.666Z,88.57
2017-11-26T01:48:20.495Z,88.77
2017-11-26T01:50:48.394Z,89.41
2017-11-26T01:53:14.936Z,88.73
2017-11-26T01:55:42.409Z,88.47
2017-11-26T01:58:08.874Z,88.98
2017-11-26T02:00:46.580Z,88.69
2017-11-26T02:03:14.831Z,89.04
2017-11-26T02:05:42.432Z,89.03
2017-11-26T02:08:08.258Z,88.69
2017-11-26T02:10:36.321Z,88.91
2017-11-26T02:13:04.577Z,88.96
2017-11-26T02:15:31.717Z,89.07
2017-11-26T02:18:01.142Z,89.00
2017-11-26T02:20:28.161Z,88.72
2017-11-26T02:22:54.761Z,89.01
2017-11-26T02:25:23.226Z,88.89
2017-11-26T02:27:51.702Z,89.16
2017-11-26T02:30:17.539Z,89.12
2017-11-26T02:32:55.889Z,88.99
2017-11-26T02:35:34.650Z,88.90
2017-11-26T02:38:03.443Z,88.16
2017-11-26T02:40:29.799Z,88.38
2017-11-26T02:45:28.353Z,88.94
2017-11-26T02:47:54.185Z,88.68
2017-11-26T02:50:19.997Z,88.73
2017-11-26T02:52:45.885Z,88.94
2017-11-26T02:55:11.713Z,88.82
2017-11-26T02:57:37.514Z,88.73
2017-11-26T03:00:03.597Z,88.62
2017-11-26T03:02:30.099Z,88.96
2017-11-26T03:04:55.888Z,88.97
2017-11-26T03:07:22.586Z,88.90
2017-11-26T03:09:48.394Z,88.69
2017-11-26T03:12:14.188Z,88.94
2017-11-26T03:14:39.988Z,89.22
2017-11-26T03:17:05.807Z,89.24
2017-11-26T03:19:32.708Z,88.97
2017-11-26T03:21:58.535Z,88.98
2017-11-26T03:24:24.365Z,88.78
2017-11-26T03:26:50.219Z,88.97
2017-11-26T03:29:16.043Z,88.64
2017-11-26T03:31:42.707Z,89.15
2017-11-26T03:34:08.943Z,89.17
2017-11-26T03:36:34.957Z,88.66
2017-11-26T03:39:00.769Z,88.31
2017-11-26T03:41:26.672Z,88.66
2017-11-26T03:43:53.068Z,88.85
2017-11-26T03:46:18.869Z,89.24
2017-11-26T03:48:44.972Z,88.92
2017-11-26T03:51:10.768Z,88.68
2017-11-26T03:53:36.548Z,88.65
2017-11-26T03:56:02.739Z,88.99
2017-11-26T03:58:28.528Z,88.66
2017-11-26T04:00:54.357Z,88.61
2017-11-26T04:03:20.159Z,88.89
2017-11-26T04:05:45.968Z,88.58
2017-11-26T04:08:11.747Z,88.80
2017-11-26T04:10:37.570Z,87.97
2017-11-26T04:13:03.377Z,88.06
2017-11-26T04:15:29.182Z,88.40
2017-11-26T04:17:55.039Z,88.53
2017-11-26T04:20:20.846Z,88.79
2017-11-26T04:22:46.646Z,88.95
2017-11-26T04:25:12.471Z,88.85
2017-11-26T04:27:38.288Z,88.92
2017-11-26T04:30:04.117Z,88.52
2017-11-26T04:32:30.322Z,88.89
2017-11-26T04:34:56.095Z,89.14
2017-11-26T04:37:21.889Z,89.04
2017-11-26T04:39:47.707Z,88.75
2017-11-26T04:42:13.508Z,88.65
2017-11-26T04:44:39.300Z,88.82
2017-11-26T04:47:05.126Z,88.58
2017-11-26T04:49:30.925Z,88.99
2017-11-26T04:51:56.728Z,88.78
2017-11-26T04:54:22.526Z,88.87
2017-11-26T04:56:48.307Z,88.80
2017-11-26T04:59:14.435Z,89.07
2017-11-26T05:01:40.254Z,89.08
2017-11-26T05:04:06.067Z,88.92
2017-11-26T05:06:31.877Z,88.74
2017-11-26T05:08:57.681Z,88.53
2017-11-26T05:11:23.482Z,88.37
2017-11-26T05:13:49.320Z,88.66
2017-11-26T05:16:15.110Z,88.07
2017-11-26T05:18:40.905Z,87.88
2017-11-26T05:21:06.988Z,87.97
2017-11-26T05:23:32.810Z,87.95
2017-11-26T05:25:58.617Z,87.97
2017-11-26T05:28:24.416Z,87.63
2017-11-26T05:30:50.208Z,87.88
2017-11-26T05:33:16.013Z,87.52
2017-11-26T05:35:41.824Z,87.48
2017-11-26T05:38:08.059Z,87.70
2017-11-26T05:40:34.159Z,87.71
2017-11-26T05:42:59.981Z,87.64
2017-11-26T05:45:25.804Z,87.78
2017-11-26T05:47:51.642Z,87.38
2017-11-26T05:50:17.512Z,87.60
2017-11-26T05:52:43.318Z,87.08
2017-11-26T05:55:09.100Z,87.43
2017-11-26T05:57:34.912Z,87.27
2017-11-26T06:00:00.735Z,87.39
2017-11-26T06:02:26.556Z,87.47
2017-11-26T06:04:52.363Z,87.51
2017-11-26T06:07:18.164Z,87.63
2017-11-26T06:09:43.983Z,87.64
2017-11-26T06:12:10.712Z,87.51
2017-11-26T06:14:36.521Z,87.56
2017-11-26T06:17:02.340Z,87.17
2017-11-26T06:19:28.361Z,87.33
2017-11-26T06:21:54.149Z,87.21
2017-11-26T06:24:19.940Z,87.32
2017-11-26T06:26:45.792Z,87.16
2017-11-26T06:29:11.580Z,86.93
2017-11-26T06:31:37.385Z,86.80
2017-11-26T06:34:03.589Z,86.56
2017-11-26T06:36:29.394Z,86.70
2017-11-26T06:38:55.188Z,86.46
2017-11-26T06:41:21.008Z,86.70
2017-11-26T06:43:46.849Z,86.35
2017-11-26T06:46:12.660Z,86.26
2017-11-26T06:48:38.769Z,86.34
2017-11-26T06:51:04.552Z,86.33
2017-11-26T06:53:30.347Z,86.54
2017-11-26T06:55:56.183Z,86.57
2017-11-26T06:58:21.995Z,86.73
2017-11-26T07:00:47.796Z,86.70
2017-11-26T07:03:13.622Z,86.55
2017-11-26T07:05:39.444Z,86.72
2017-11-26T07:08:05.250Z,86.85
2017-11-26T07:10:31.105Z,86.70
2017-11-26T07:12:56.911Z,86.71
2017-11-26T07:15:22.684Z,86.33
2017-11-26T07:17:48.490Z,86.13
2017-11-26T07:20:14.276Z,86.43
2017-11-26T07:22:40.092Z,86.13
2017-11-26T07:25:05.884Z,86.24
2017-11-26T07:27:31.687Z,86.35
2017-11-26T07:29:57.524Z,86.30
2017-11-26T07:32:23.341Z,86.28
2017-11-26T07:34:49.130Z,86.32
2017-11-26T07:37:14.952Z,86.55
2017-11-26T07:39:40.744Z,86.67
2017-11-26T07:42:06.538Z,86.49
2017-11-26T07:44:32.522Z,86.52
2017-11-26T07:46:58.327Z,86.79
2017-11-26T07:49:24.118Z,86.88
2017-11-26T07:51:49.934Z,86.80
2017-11-26T07:54:15.732Z,86.89
2017-11-26T07:56:41.527Z,86.92
2017-11-26T07:59:07.335Z,86.69
2017-11-26T08:01:33.128Z,86.83
2017-11-26T08:03:58.923Z,86.94
2017-11-26T08:06:24.712Z,86.93
2017-11-26T08:08:50.491Z,87.04
2017-11-26T08:11:16.326Z,87.09
2017-11-26T08:13:42.120Z,86.59
2017-11-26T08:16:07.929Z,86.70
2017-11-26T08:18:36.227Z,87.13
2017-11-26T08:21:02.021Z,86.66
2017-11-26T08:23:27.809Z,86.65
2017-11-26T08:25:53.997Z,86.47
2017-11-26T08:28:19.811Z,86.36
2017-11-26T08:30:45.615Z,86.44
2017-11-26T08:33:11.747Z,86.34
2017-11-26T08:35:38.287Z,86.57
2017-11-26T08:38:04.828Z,86.19
2017-11-26T08:40:31.391Z,86.51
2017-11-26T08:42:57.552Z,86.18
2017-11-26T08:45:23.416Z,86.07
2017-11-26T08:47:49.347Z,86.18
2017-11-26T08:50:15.336Z,86.35
2017-11-26T08:52:41.805Z,85.90
2017-11-26T08:55:08.170Z,86.12
2017-11-26T08:57:34.684Z,86.21
2017-11-26T09:00:01.640Z,86.15
2017-11-26T09:02:27.863Z,86.01
2017-11-26T09:04:53.872Z,86.07
2017-11-26T09:07:30.016Z,85.82
2017-11-26T09:09:56.629Z,85.87
2017-11-26T09:12:23.111Z,85.88
2017-11-26T09:14:49.682Z,85.89
2017-11-26T09:17:16.067Z,85.86
2017-11-26T09:19:42.411Z,85.38
2017-11-26T09:22:08.555Z,85.87
2017-11-26T09:24:34.452Z,85.63
2017-11-26T09:27:00.658Z,85.91
2017-11-26T09:29:26.471Z,85.69
2017-11-26T09:31:52.636Z,85.68
2017-11-26T09:34:19.022Z,85.39
2017-11-26T09:36:45.576Z,85.00
2017-11-26T09:39:11.914Z,85.49
2017-11-26T09:41:37.981Z,85.05
2017-11-26T09:44:03.878Z,85.29
2017-11-26T09:46:29.813Z,85.74
2017-11-26T09:48:56.302Z,85.62
2017-11-26T09:51:22.678Z,85.24
2017-11-26T09:53:48.882Z,85.60
2017-11-26T09:56:14.721Z,85.59
2017-11-26T09:58:41.906Z,85.21
2017-11-26T10:01:07.994Z,85.16
2017-11-26T10:03:33.825Z,85.16
2017-11-26T10:06:00.015Z,84.91
2017-11-26T10:08:26.535Z,85.12
2017-11-26T10:10:52.949Z,84.79
2017-11-26T10:13:18.814Z,84.90
2017-11-26T10:15:44.889Z,84.42
2017-11-26T10:18:11.368Z,84.63
2017-11-26T10:20:38.405Z,84.31
2017-11-26T10:23:05.045Z,84.46
2017-11-26T10:25:31.585Z,84.18
2017-11-26T10:27:58.061Z,83.57
2017-11-26T10:30:24.542Z,84.25
2017-11-26T10:32:51.140Z,84.35
2017-11-26T10:35:18.432Z,84.09
2017-11-26T10:37:46.841Z,83.76
2017-11-26T10:40:13.896Z,84.08
2017-11-26T10:42:43.512Z,84.23
2017-11-26T10:45:10.360Z,84.35
2017-11-26T10:47:37.103Z,84.38
2017-11-26T10:50:04.777Z,84.43
2017-11-26T10:52:30.732Z,84.53
2017-11-26T10:54:56.583Z,84.43
2017-11-26T10:57:22.405Z,84.74
2017-11-26T10:59:48.517Z,84.18
2017-11-26T11:02:14.397Z,84.53
2017-11-26T11:04:40.190Z,84.33
2017-11-26T11:07:06.093Z,84.45
2017-11-26T11:09:33.282Z,84.56
2017-11-26T11:11:59.794Z,84.34
2017-11-26T11:14:25.696Z,84.16
2017-11-26T11:16:51.669Z,84.46
2017-11-26T11:19:18.026Z,84.41
2017-11-26T11:21:44.236Z,83.92
2017-11-26T11:24:10.111Z,83.89
2017-11-26T11:26:35.895Z,83.85
2017-11-26T11:29:02.785Z,84.02
2017-11-26T11:31:29.605Z,83.71
2017-11-26T11:33:56.377Z,83.69
2017-11-26T11:36:23.417Z,83.35
2017-11-26T11:38:50.160Z,83.19
2017-11-26T11:41:16.365Z,83.42
2017-11-26T11:43:42.241Z,83.51
2017-11-26T11:46:08.386Z,83.63
2017-11-26T11:48:34.807Z,83.81
2017-11-26T11:51:01.677Z,83.68
2017-11-26T11:53:28.260Z,83.94
2017-11-26T11:55:55.156Z,83.62
2017-11-26T11:58:22.694Z,83.58
2017-11-26T12:00:49.640Z,83.68
2017-11-26T12:03:16.279Z,83.68
2017-11-26T12:05:42.961Z,83.69
2017-11-26T12:08:09.750Z,83.68
2017-11-26T12:10:36.016Z,83.62
2017-11-26T12:13:02.099Z,83.57
2017-11-26T12:15:28.167Z,83.49
2017-11-26T12:17:54.480Z,83.28
2017-11-26T12:20:21.068Z,83.19
2017-11-26T12:22:47.785Z,82.95
2017-11-26T12:25:14.845Z,83.51
2017-11-26T12:27:41.630Z,83.54
2017-11-26T12:30:08.427Z,83.23
2017-11-26T12:32:35.344Z,83.14
2017-11-26T12:35:02.182Z,83.38
2017-11-26T12:37:28.063Z,83.34
2017-11-26T12:39:54.091Z,83.10
2017-11-26T12:42:20.443Z,83.28
2017-11-26T12:44:47.108Z,83.13
2017-11-26T12:47:13.085Z,83.44
2017-11-26T12:49:39.743Z,83.23
2017-11-26T12:52:05.908Z,83.10
2017-11-26T12:54:32.348Z,83.53
2017-11-26T12:56:59.263Z,83.37
2017-11-26T12:59:25.131Z,82.94
2017-11-26T13:01:52.792Z,83.78
2017-11-26T13:04:19.284Z,85.39
2017-11-26T13:06:45.173Z,84.69
2017-11-26T13:09:11.706Z,85.20
2017-11-26T13:11:38.138Z,86.20
2017-11-26T13:14:04.075Z,86.50
2017-11-26T13:16:31.018Z,87.81
2017-11-26T13:18:56.903Z,87.79
2017-11-26T13:21:22.729Z,88.04
2017-11-26T13:23:48.647Z,87.37
2017-11-26T13:26:14.503Z,87.16
2017-11-26T13:28:40.367Z,87.63
2017-11-26T13:31:06.236Z,87.79
2017-11-26T13:33:32.102Z,88.09
2017-11-26T13:35:57.994Z,86.98
2017-11-26T13:38:23.937Z,87.59
2017-11-26T13:40:49.944Z,87.34
2017-11-26T13:43:15.898Z,86.58
2017-11-26T13:45:41.745Z,87.80
2017-11-26T13:48:07.572Z,87.07
2017-11-26T13:50:33.592Z,87.04
2017-11-26T13:53:00.394Z,88.00
2017-11-26T13:55:26.987Z,87.78
2017-11-26T13:57:53.047Z,88.19
2017-11-26T14:00:33.503Z,89.47
2017-11-26T14:03:16.974Z,89.89
2017-11-26T14:05:56.562Z,90.87
2017-11-26T14:08:38.615Z,90.65
2017-11-26T14:11:18.632Z,91.44
2017-11-26T14:13:57.646Z,91.42
2017-11-26T14:16:38.105Z,91.67
2017-11-26T14:19:19.031Z,91.68
2017-11-26T14:24:42.890Z,92.12
2017-11-26T14:27:10.709Z,92.17
2017-11-26T14:29:36.609Z,92.01
2017-11-26T14:32:03.585Z,92.05
2017-11-26T14:34:30.075Z,92.33
2017-11-26T14:36:57.213Z,92.10
2017-11-26T14:39:23.757Z,92.11
2017-11-26T14:41:49.743Z,92.06
2017-11-26T14:44:16.349Z,92.01
2017-11-26T14:46:56.559Z,92.99
2017-11-26T14:49:29.941Z,92.91
2017-11-26T14:52:11.106Z,93.13
2017-11-26T14:54:52.620Z,92.89
2017-11-26T14:57:24.646Z,93.62
2017-11-26T15:00:05.502Z,93.37
2017-11-26T15:05:26.314Z,92.77
2017-11-26T15:07:52.820Z,93.28
2017-11-26T15:10:18.675Z,92.67
2017-11-26T15:12:44.555Z,92.13
2017-11-26T15:15:10.932Z,92.03
2017-11-26T15:17:36.788Z,92.16
2017-11-26T15:20:03.593Z,92.13
2017-11-26T15:22:29.528Z,91.99
2017-11-26T15:24:55.385Z,91.59
2017-11-26T15:27:21.212Z,91.96
2017-11-26T15:29:48.530Z,91.64
2017-11-26T15:32:14.410Z,91.89
2017-11-26T15:34:40.692Z,91.52
2017-11-26T15:37:06.536Z,91.17
2017-11-26T15:39:32.863Z,91.00
2017-11-26T15:41:59.693Z,90.95
2017-11-26T15:44:26.492Z,91.00
2017-11-26T15:46:52.753Z,90.87
2017-11-26T15:49:19.210Z,90.68
2017-11-26T15:51:46.033Z,90.78
2017-11-26T15:54:12.696Z,90.62
2017-11-26T15:56:39.409Z,90.48
2017-11-26T15:59:05.316Z,90.23
2017-11-26T16:01:32.084Z,89.95
2017-11-26T16:03:58.037Z,90.11
2017-11-26T16:06:23.902Z,90.08
2017-11-26T16:08:51.112Z,89.72
2017-11-26T16:11:18.065Z,90.09
2017-11-26T16:13:45.042Z,89.70
2017-11-26T16:16:11.398Z,89.62
2017-11-26T16:18:37.918Z,89.86
2017-11-26T16:21:03.829Z,89.67
2017-11-26T16:23:29.666Z,90.07
2017-11-26T16:25:55.765Z,89.78
2017-11-26T16:28:22.661Z,89.48
2017-11-26T16:30:48.474Z,89.61
2017-11-26T16:33:15.420Z,89.60
2017-11-26T16:35:42.262Z,89.62
2017-11-26T16:38:08.127Z,88.66
2017-11-26T16:40:34.220Z,88.65
2017-11-26T16:43:00.921Z,88.57
2017-11-26T16:45:27.641Z,88.54
2017-11-26T16:47:54.464Z,88.29
2017-11-26T16:50:21.364Z,87.46
2017-11-26T16:52:48.045Z,87.67
2017-11-26T16:55:14.158Z,87.12
2017-11-26T16:57:40.564Z,87.48
2017-11-26T17:00:06.669Z,86.49
2017-11-26T17:02:32.674Z,87.28
2017-11-26T17:04:58.568Z,87.50
2017-11-26T17:07:24.830Z,87.22
2017-11-26T17:09:51.431Z,87.26
2017-11-26T17:12:18.532Z,87.39
2017-11-26T17:14:45.145Z,87.29
2017-11-26T17:17:11.905Z,87.38
2017-11-26T17:19:38.440Z,87.19
2017-11-26T17:22:04.638Z,87.61
2017-11-26T17:24:31.318Z,88.22
2017-11-26T17:26:57.729Z,89.13
2017-11-26T17:29:24.314Z,89.43
2017-11-26T17:31:50.399Z,89.21
2017-11-26T17:34:16.335Z,88.49
2017-11-26T17:36:42.169Z,88.29
2017-11-26T17:39:08.337Z,88.79
2017-11-26T17:41:34.909Z,88.24
2017-11-26T17:44:01.009Z,88.24
2017-11-26T17:46:26.983Z,88.21
2017-11-26T17:48:52.814Z,87.63
2017-11-26T17:51:18.948Z,87.54
2017-11-26T17:53:45.466Z,87.36
2017-11-26T17:56:11.575Z,87.08
2017-11-26T17:58:37.497Z,86.96
2017-11-26T18:01:03.468Z,86.93
2017-11-26T18:03:29.283Z,86.57
2017-11-26T18:05:55.769Z,86.55
2017-11-26T18:08:22.261Z,86.35
2017-11-26T18:10:48.344Z,86.36
2017-11-26T18:13:14.220Z,86.25
2017-11-26T18:15:40.038Z,86.06
2017-11-26T18:18:06.328Z,85.88
2017-11-26T18:20:33.001Z,86.04
2017-11-26T18:22:59.424Z,85.99
2017-11-26T18:25:26.085Z,86.03
2017-11-26T18:27:52.645Z,85.68
2017-11-26T18:30:19.127Z,86.40
2017-11-26T18:32:45.046Z,86.56
2017-11-26T18:35:10.968Z,86.68
2017-11-26T18:37:36.805Z,87.18
2017-11-26T18:40:02.652Z,86.88
2017-11-26T18:42:29.438Z,87.22
2017-11-26T18:44:55.806Z,87.24
2017-11-26T18:47:22.924Z,87.27
2017-11-26T18:49:49.957Z,87.68
2017-11-26T18:52:16.729Z,87.47
2017-11-26T18:54:42.781Z,86.87
2017-11-26T18:57:08.660Z,87.09
2017-11-26T18:59:35.335Z,87.74
2017-11-26T19:02:01.373Z,88.63
2017-11-26T19:04:28.058Z,88.76
2017-11-26T19:06:54.044Z,89.02
2017-11-26T19:09:20.878Z,88.83
2017-11-26T19:11:46.778Z,89.16
2017-11-26T19:14:13.183Z,88.38
2017-11-26T19:16:39.092Z,88.47
2017-11-26T19:19:05.859Z,88.17
2017-11-26T19:21:31.727Z,88.13
2017-11-26T19:23:57.547Z,88.10
2017-11-26T19:26:24.740Z,87.72
2017-11-26T19:28:51.356Z,87.51
2017-11-26T19:31:17.194Z,87.07
2017-11-26T19:33:43.152Z,87.15
2017-11-26T19:36:08.969Z,86.95
2017-11-26T19:38:34.828Z,86.43
2017-11-26T19:41:00.668Z,86.46
2017-11-26T19:43:26.773Z,86.29
2017-11-26T19:45:52.748Z,86.08
2017-11-26T19:48:18.726Z,85.88
2017-11-26T19:50:44.881Z,85.79
2017-11-26T19:53:10.896Z,85.55
2017-11-26T19:55:36.805Z,87.28
2017-11-26T19:58:02.642Z,88.37
2017-11-26T20:00:28.593Z,89.08
2017-11-26T20:02:54.573Z,88.87
2017-11-26T20:05:20.389Z,88.58
2017-11-26T20:07:46.464Z,87.84
2017-11-26T20:10:12.277Z,87.62
2017-11-26T20:12:38.088Z,87.75
2017-11-26T20:15:03.906Z,87.59
2017-11-26T20:17:29.781Z,88.03
2017-11-26T20:19:55.905Z,88.26
2017-11-26T20:22:21.890Z,88.99
2017-11-26T20:24:47.738Z,88.99
2017-11-26T20:27:13.692Z,89.96
2017-11-26T20:29:39.481Z,90.28
2017-11-26T20:32:05.422Z,90.04
2017-11-26T20:34:31.231Z,90.01
2017-11-26T20:36:57.017Z,89.95
2017-11-26T20:39:22.805Z,90.12
2017-11-26T20:41:49.077Z,90.25
2017-11-26T20:44:14.881Z,90.32
2017-11-26T20:46:40.679Z,90.42
2017-11-26T20:49:06.740Z,89.77
2017-11-26T20:51:32.596Z,89.43
2017-11-26T20:53:58.962Z,89.53
2017-11-26T20:56:24.827Z,89.38
2017-11-26T20:58:50.617Z,89.14
2017-11-26T21:01:16.518Z,89.20
2017-11-26T21:03:42.308Z,89.00
2017-11-26T21:06:08.387Z,88.56
2017-11-26T21:08:34.196Z,88.57
2017-11-26T21:11:00.397Z,88.28
2017-11-26T21:13:26.200Z,88.27
2017-11-26T21:15:52.247Z,87.85
2017-11-26T21:18:18.128Z,88.09
2017-11-26T21:20:43.920Z,87.34
2017-11-26T21:23:09.713Z,87.23
2017-11-26T21:25:35.545Z,87.34
2017-11-26T21:28:01.353Z,87.19
2017-11-26T21:30:27.927Z,87.30
2017-11-26T21:32:53.803Z,87.59
2017-11-26T21:35:19.700Z,87.30
2017-11-26T21:37:45.487Z,87.33
2017-11-26T21:40:11.293Z,87.35
2017-11-26T21:42:37.234Z,87.34
2017-11-26T21:45:03.045Z,87.23
2017-11-26T21:47:29.448Z,87.41
2017-11-26T21:49:55.265Z,87.47
2017-11-26T21:52:21.471Z,87.64
2017-11-26T21:54:47.297Z,87.48
2017-11-26T21:57:13.689Z,87.39
2017-11-26T21:59:39.484Z,87.74
2017-11-26T22:02:05.521Z,87.84
2017-11-26T22:04:31.322Z,87.32
2017-11-26T22:06:57.108Z,87.54
2017-11-26T22:09:23.048Z,87.57
2017-11-26T22:11:48.843Z,87.62
2017-11-26T22:14:14.645Z,87.86
2017-11-26T22:16:40.469Z,87.88
2017-11-26T22:19:06.346Z,87.75
2017-11-26T22:21:32.148Z,87.95
2017-11-26T22:23:58.657Z,87.91
2017-11-26T22:26:24.463Z,87.90
2017-11-26T22:28:50.603Z,87.88
2017-11-26T22:31:16.737Z,87.86
2017-11-26T22:33:42.945Z,87.42
2017-11-26T22:36:08.747Z,87.83
2017-11-26T22:38:35.011Z,87.67
2017-11-26T22:41:00.844Z,87.78
2017-11-26T22:43:27.014Z,87.66
2017-11-26T22:45:52.874Z,87.13
2017-11-26T22:48:18.695Z,87.21
2017-11-26T22:50:44.657Z,87.46
2017-11-26T22:53:10.452Z,87.19
2017-11-26T22:55:36.276Z,87.30
2017-11-26T22:58:02.106Z,87.08
2017-11-26T23:00:28.093Z,87.04
2017-11-26T23:02:53.971Z,86.86
2017-11-26T23:05:19.774Z,86.94
2017-11-26T23:07:45.577Z,86.90
2017-11-26T23:10:11.402Z,86.97
2017-11-26T23:12:37.704Z,86.96
2017-11-26T23:15:03.498Z,86.93
2017-11-26T23:17:29.646Z,86.43
2017-11-26T23:19:55.416Z,86.67
2017-11-26T23:22:21.344Z,86.85
2017-11-26T23:24:47.492Z,86.89
2017-11-26T23:27:13.290Z,86.64
2017-11-26T23:29:39.090Z,86.82
2017-11-26T23:32:04.911Z,86.99
2017-11-26T23:34:31.096Z,86.59
2017-11-26T23:36:56.889Z,86.73
2017-11-26T23:39:22.836Z,86.50
2017-11-26T23:41:48.664Z,86.71
2017-11-26T23:44:14.621Z,87.02
2017-11-26T23:46:40.450Z,87.07
2017-11-26T23:49:06.592Z,86.83
2017-11-26T23:51:32.413Z,86.59
2017-11-26T23:53:58.664Z,87.07
2017-11-26T23:56:24.621Z,87.31
2017-11-26T23:58:50.777Z,87.42
